createdAt,value
2023-04-11T00:03:43.236Z,100031.78
2023-04-11T00:07:47.813Z,100026.94
2023-04-11T00:11:52.224Z,100019.47
2023-04-11T00:15:56.044Z,100017.69
2023-04-11T00:20:01.906Z,100013.91
2023-04-11T00:24:13.232Z,100015.09
2023-04-11T00:28:20.401Z,100010.34
2023-04-11T00:32:27.853Z,100007.00
2023-04-11T00:36:32.992Z,100001.63
2023-04-11T00:40:36.318Z,99992.19
2023-04-11T00:44:40.878Z,100005.41
2023-04-11T00:48:44.041Z,99987.50
2023-04-11T00:52:49.511Z,99989.13
2023-04-11T00:56:54.315Z,99979.41
2023-04-11T01:00:58.976Z,99973.22
2023-04-11T01:05:02.430Z,99973.38
2023-04-11T01:09:05.466Z,99973.72
2023-04-11T01:13:08.853Z,99971.41
2023-04-11T01:17:14.538Z,99965.59
2023-04-11T01:21:19.624Z,99964.91
2023-04-11T01:25:27.502Z,99969.38
2023-04-11T01:29:30.426Z,99966.13
2023-04-11T01:33:33.273Z,99962.75
2023-04-11T01:37:38.269Z,99963.66
2023-04-11T01:41:43.732Z,99955.09
2023-04-11T01:45:46.716Z,99950.84
2023-04-11T01:49:50.931Z,99948.03
2023-04-11T01:53:53.423Z,99946.78
2023-04-11T01:57:57.867Z,99939.56
2023-04-11T02:02:00.753Z,99933.44
2023-04-11T02:06:04.074Z,99926.63
2023-04-11T02:10:10.337Z,99929.09
2023-04-11T02:14:16.629Z,99925.56
2023-04-11T02:18:19.614Z,99915.97
2023-04-11T02:22:22.671Z,99921.31
2023-04-11T02:26:27.094Z,99917.00
2023-04-11T02:30:31.946Z,99915.41
2023-04-11T02:34:35.065Z,99908.41
2023-04-11T02:38:37.811Z,99907.22
2023-04-11T02:42:44.881Z,99900.25
2023-04-11T02:46:49.184Z,99884.69
2023-04-11T02:50:52.326Z,99881.59
2023-04-11T02:54:55.352Z,99867.03
2023-04-11T02:58:58.669Z,99870.38
2023-04-11T03:03:07.730Z,99870.16
2023-04-11T03:07:14.547Z,99863.13
2023-04-11T03:11:17.626Z,99866.59
2023-04-11T03:15:20.546Z,99872.19
2023-04-11T03:19:28.060Z,99872.16
2023-04-11T03:23:32.236Z,99875.53
2023-04-11T03:27:35.313Z,99867.69
2023-04-11T03:31:38.571Z,99863.41
2023-04-11T03:35:42.934Z,99861.69
2023-04-11T03:39:46.260Z,99861.88
2023-04-11T03:43:48.986Z,99853.88
2023-04-11T03:47:52.174Z,99845.63
2023-04-11T03:51:59.260Z,99843.44
2023-04-11T03:56:01.821Z,99851.25
2023-04-11T04:00:07.760Z,99849.22
2023-04-11T04:04:14.941Z,99846.28
2023-04-11T04:08:19.541Z,99846.28
2023-04-11T04:12:22.685Z,99849.81
2023-04-11T04:16:25.315Z,99845.63
2023-04-11T04:20:28.392Z,99848.22
2023-04-11T04:24:38.714Z,99846.28
2023-04-11T04:28:46.221Z,99840.38
2023-04-11T04:32:49.055Z,99839.00
2023-04-11T04:36:56.692Z,99842.16
2023-04-11T04:41:06.300Z,99848.00
2023-04-11T04:45:10.648Z,99843.06
2023-04-11T04:49:13.603Z,99842.16
2023-04-11T04:53:16.582Z,99845.25
2023-04-11T04:57:21.379Z,99835.50
2023-04-11T05:01:27.998Z,99848.88
2023-04-11T05:05:31.063Z,99841.81
2023-04-11T05:09:34.184Z,99831.84
2023-04-11T05:13:38.422Z,99830.66
2023-04-11T05:17:43.039Z,99825.50
2023-04-11T05:21:50.326Z,99825.94
2023-04-11T05:25:53.451Z,99817.53
2023-04-11T05:30:05.276Z,99819.00
2023-04-11T05:34:11.698Z,99805.88
2023-04-11T05:38:14.829Z,99807.22
2023-04-11T05:42:18.800Z,99788.56
2023-04-11T05:46:26.020Z,99793.63
2023-04-11T05:50:28.561Z,99784.69
2023-04-11T05:54:36.120Z,99786.66
2023-04-11T05:58:42.421Z,99785.97
2023-04-11T06:02:48.057Z,99788.38
2023-04-11T06:06:53.269Z,99781.13
2023-04-11T06:10:56.130Z,99775.41
2023-04-11T06:14:58.407Z,99770.41
2023-04-11T06:19:02.611Z,99767.78
2023-04-11T06:23:05.819Z,99763.19
2023-04-11T06:27:11.010Z,99758.47
2023-04-11T06:31:14.271Z,99760.78
2023-04-11T06:35:20.729Z,99757.53
2023-04-11T06:39:23.783Z,99746.91
2023-04-11T06:43:26.985Z,99749.41
2023-04-11T06:47:29.909Z,99735.84
2023-04-11T06:51:34.747Z,99730.84
2023-04-11T06:55:37.618Z,99721.94
2023-04-11T06:59:40.445Z,99725.69
2023-04-11T07:03:46.341Z,99719.66
2023-04-11T07:07:54.287Z,99711.75
2023-04-11T07:11:59.332Z,99717.19
2023-04-11T07:16:04.208Z,99718.00
2023-04-11T07:20:09.959Z,99712.56
2023-04-11T07:24:14.572Z,99709.47
2023-04-11T07:28:18.079Z,99710.06
2023-04-11T07:32:22.093Z,99710.31
2023-04-11T07:36:25.030Z,99707.34
2023-04-11T07:40:29.841Z,99698.22
2023-04-11T07:44:32.975Z,99688.84
2023-04-11T07:48:38.333Z,99688.19
2023-04-11T07:52:44.556Z,99677.63
2023-04-11T07:56:51.045Z,99673.47
2023-04-11T08:00:54.084Z,99673.88
2023-04-11T08:04:57.435Z,99671.38
2023-04-11T08:09:02.126Z,99674.91
2023-04-11T08:13:06.502Z,99656.81
2023-04-11T08:17:21.136Z,99651.50
2023-04-11T08:21:33.305Z,99660.56
2023-04-11T08:25:38.054Z,99641.19
2023-04-11T08:29:42.531Z,99637.81
2023-04-11T08:33:45.128Z,99635.66
2023-04-11T08:37:53.962Z,99629.38
2023-04-11T08:41:57.085Z,99624.47
2023-04-11T08:46:03.095Z,99614.44
2023-04-11T08:50:06.794Z,99598.06
2023-04-11T08:54:10.890Z,99594.38
2023-04-11T08:58:16.502Z,99585.03
2023-04-11T09:02:22.034Z,99575.47
2023-04-11T09:06:26.898Z,99569.78
2023-04-11T09:10:29.944Z,99554.22
2023-04-11T09:14:33.246Z,99547.63
2023-04-11T09:18:41.584Z,99532.44
2023-04-11T09:22:44.731Z,99527.59
2023-04-11T09:26:49.702Z,99514.06
2023-04-11T09:30:55.881Z,99513.09
2023-04-11T09:35:17.289Z,99509.72
2023-04-11T09:39:23.858Z,99495.41
2023-04-11T09:43:26.849Z,99509.50
2023-04-11T09:47:34.230Z,99489.13
2023-04-11T09:51:38.671Z,99484.94
2023-04-11T09:55:42.112Z,99480.13
2023-04-11T09:59:46.087Z,99479.41
2023-04-11T10:03:52.262Z,99464.63
2023-04-11T10:08:03.348Z,99465.09
2023-04-11T10:12:07.230Z,99463.31
2023-04-11T10:16:12.631Z,99448.00
2023-04-11T10:20:47.728Z,99441.50
2023-04-11T10:25:18.209Z,99453.97
2023-04-11T10:29:51.786Z,99445.06
2023-04-11T10:34:16.121Z,99448.41
2023-04-11T10:38:52.313Z,99446.19
2023-04-11T10:43:22.771Z,99441.00
2023-04-11T10:47:26.446Z,99429.13
2023-04-11T10:51:30.328Z,99419.84
2023-04-11T10:55:46.345Z,99417.56
2023-04-11T11:00:16.378Z,99419.44
2023-04-11T11:04:20.234Z,99420.59
2023-04-11T11:08:30.897Z,99410.78
2023-04-11T11:12:33.887Z,99408.34
2023-04-11T11:16:38.478Z,99401.41
2023-04-11T11:20:45.125Z,99394.06
2023-04-11T11:24:48.324Z,99401.69
2023-04-11T11:28:51.401Z,99392.66
2023-04-11T11:32:59.301Z,99395.69
2023-04-11T11:37:04.884Z,99379.00
2023-04-11T11:41:08.217Z,99375.59
2023-04-11T11:45:17.787Z,99378.94
2023-04-11T11:49:22.193Z,99373.81
2023-04-11T11:53:34.464Z,99365.47
2023-04-11T11:57:38.323Z,99365.06
2023-04-11T12:01:43.540Z,99362.38
2023-04-11T12:05:53.987Z,99363.25
2023-04-11T12:10:03.144Z,99365.13
2023-04-11T12:14:05.796Z,99357.09
2023-04-11T12:18:08.667Z,99365.84
2023-04-11T12:22:13.242Z,99360.25
2023-04-11T12:26:21.112Z,99372.06
2023-04-11T12:30:26.786Z,99341.44
2023-04-11T12:34:31.326Z,99334.69
2023-04-11T12:38:38.194Z,99328.63
2023-04-11T12:46:47.854Z,99308.75
2023-04-11T12:50:53.428Z,99305.09
2023-04-11T12:55:00.510Z,99317.47
2023-04-11T12:59:03.499Z,99291.28
2023-04-11T13:03:07.093Z,99295.91
2023-04-11T13:07:10.209Z,99274.88
2023-04-11T13:11:14.557Z,99262.66
2023-04-11T13:15:18.112Z,99267.28
2023-04-11T13:19:22.215Z,99260.50
2023-04-11T13:23:26.604Z,99261.81
2023-04-11T13:27:30.770Z,99251.00
2023-04-11T13:31:33.832Z,99260.72
2023-04-11T13:35:37.094Z,99260.38
2023-04-11T13:39:43.794Z,99246.03
2023-04-11T13:43:49.591Z,99244.00
2023-04-11T13:47:52.724Z,99229.78
2023-04-11T13:51:58.842Z,99229.31
2023-04-11T13:56:04.023Z,99218.91
2023-04-11T14:00:12.390Z,99220.97
2023-04-11T14:04:15.458Z,99221.25
2023-04-11T14:08:21.115Z,99215.78
2023-04-11T14:12:28.317Z,99205.34
2023-04-11T14:16:33.378Z,99202.03
2023-04-11T14:20:36.335Z,99196.53
2023-04-11T14:24:39.553Z,99195.91
2023-04-11T14:28:42.680Z,99193.97
2023-04-11T14:32:47.340Z,99189.63
2023-04-11T14:36:52.621Z,99177.81
2023-04-11T14:40:57.438Z,99181.06
2023-04-11T14:45:03.630Z,99176.69
2023-04-11T14:49:08.685Z,99171.84
2023-04-11T14:53:11.744Z,99170.97
2023-04-11T14:57:16.717Z,99163.44
2023-04-11T15:01:20.403Z,99169.94
2023-04-11T15:05:26.070Z,99161.06
2023-04-11T15:09:29.131Z,99161.13
2023-04-11T15:13:32.276Z,99149.81
2023-04-11T15:17:41.997Z,99160.66
2023-04-11T15:21:49.002Z,99156.41
2023-04-11T15:25:55.562Z,99162.97
2023-04-11T15:29:59.873Z,99158.44
2023-04-11T15:34:04.291Z,99162.09
2023-04-11T15:38:08.960Z,99158.84
2023-04-11T15:42:14.529Z,99157.31
2023-04-11T15:46:17.673Z,99150.19
2023-04-11T15:50:20.983Z,99148.31
2023-04-11T15:54:25.800Z,99135.69
2023-04-11T15:58:30.489Z,99140.97
2023-04-11T16:02:34.924Z,99140.09
2023-04-11T16:06:37.868Z,99127.16
2023-04-11T16:10:42.098Z,99128.88
2023-04-11T16:14:45.998Z,99119.53
2023-04-11T16:18:48.721Z,99110.66
2023-04-11T16:22:51.854Z,99111.41
2023-04-11T16:26:57.208Z,99106.81
2023-04-11T16:31:03.204Z,99109.63
2023-04-11T16:35:07.481Z,99097.53
2023-04-11T16:39:13.908Z,99100.72
2023-04-11T16:43:18.444Z,99086.91
2023-04-11T16:47:26.383Z,99094.88
2023-04-11T16:51:31.211Z,99084.56
2023-04-11T16:55:34.368Z,99084.69
2023-04-11T16:59:39.077Z,99083.44
2023-04-11T17:03:43.387Z,99080.34
2023-04-11T17:07:46.860Z,99078.81
2023-04-11T17:12:04.739Z,99079.84
2023-04-11T17:16:10.565Z,99077.72
2023-04-11T17:20:14.832Z,99082.34
2023-04-11T17:24:18.028Z,99084.94
2023-04-11T17:28:21.704Z,99072.72
2023-04-11T17:32:28.885Z,99085.00
2023-04-11T17:36:32.557Z,99079.81
2023-04-11T17:40:35.605Z,99084.56
2023-04-11T17:44:41.413Z,99083.41
2023-04-11T17:48:46.534Z,99085.59
2023-04-11T17:52:49.764Z,99095.38
2023-04-11T17:56:53.226Z,99095.44
2023-04-11T18:00:59.483Z,99106.16
2023-04-11T18:05:13.307Z,99104.03
2023-04-11T18:09:28.297Z,99105.16
2023-04-11T18:13:31.826Z,99113.13
2023-04-11T18:17:36.134Z,99111.47
2023-04-11T18:21:41.746Z,99107.22
2023-04-11T18:25:47.382Z,99120.50
2023-04-11T18:29:52.224Z,99113.72
2023-04-11T18:33:56.391Z,99127.94
2023-04-11T18:38:15.758Z,99123.41
2023-04-11T18:42:19.659Z,99133.91
2023-04-11T18:46:24.282Z,99129.28
2023-04-11T18:50:30.865Z,99136.13
2023-04-11T18:54:34.487Z,99129.81
2023-04-11T18:58:45.396Z,99133.81
2023-04-11T19:02:50.913Z,99128.50
2023-04-11T19:06:54.077Z,99125.84
2023-04-11T19:10:58.699Z,99123.00
2023-04-11T19:15:01.913Z,99128.97
2023-04-11T19:19:07.603Z,99129.66
2023-04-11T19:23:10.368Z,99135.78
2023-04-11T19:27:18.511Z,99147.88
2023-04-11T19:31:24.637Z,99149.31
2023-04-11T19:35:27.903Z,99156.00
2023-04-11T19:39:38.103Z,99150.75
2023-04-11T19:43:43.543Z,99145.25
2023-04-11T19:47:46.808Z,99138.53
2023-04-11T19:51:50.083Z,99140.13
2023-04-11T19:55:56.582Z,99141.59
2023-04-11T20:00:00.979Z,99152.53
2023-04-11T20:04:07.340Z,99148.53
2023-04-11T20:08:13.691Z,99157.66
2023-04-11T20:12:16.789Z,99157.38
2023-04-11T20:16:22.693Z,99151.69
2023-04-11T20:20:30.329Z,99153.41
2023-04-11T20:24:33.486Z,99150.00
2023-04-11T20:28:38.022Z,99145.06
2023-04-11T20:32:43.468Z,99151.22
2023-04-11T20:36:49.118Z,99142.69
2023-04-11T20:40:55.475Z,99150.66
2023-04-11T20:45:03.680Z,99146.94
2023-04-11T20:49:07.791Z,99150.22
2023-04-11T20:53:10.677Z,99140.81
2023-04-11T20:57:22.562Z,99144.34
2023-04-11T21:01:26.578Z,99145.81
2023-04-11T21:05:32.712Z,99143.75
2023-04-11T21:09:36.598Z,99138.69
2023-04-11T21:13:40.898Z,99149.31
2023-04-11T21:17:47.745Z,99141.75
2023-04-11T21:21:54.126Z,99137.25
2023-04-11T21:26:09.676Z,99139.38
2023-04-11T21:30:19.738Z,99126.13
2023-04-11T21:34:31.999Z,99144.75
2023-04-11T21:38:40.982Z,99147.59
2023-04-11T21:42:46.429Z,99146.84
2023-04-11T21:46:49.175Z,99142.13
2023-04-11T21:50:52.322Z,99143.47
2023-04-11T21:54:58.685Z,99136.31
2023-04-11T21:59:01.515Z,99144.34
2023-04-11T22:03:08.350Z,99142.34
2023-04-11T22:07:14.821Z,99146.22
2023-04-11T22:11:20.554Z,99153.06
2023-04-11T22:15:24.507Z,99141.56
2023-04-11T22:19:28.747Z,99139.25
2023-04-11T22:23:33.290Z,99142.28
2023-04-11T22:27:38.610Z,99149.00
2023-04-11T22:31:42.081Z,99147.22
2023-04-11T22:35:48.588Z,99147.94
2023-04-11T22:39:51.838Z,99149.53
2023-04-11T22:44:00.130Z,99147.94
2023-04-11T22:48:04.439Z,99148.69
2023-04-11T22:52:07.633Z,99149.63
2023-04-11T22:56:11.997Z,99156.56
2023-04-11T23:00:17.765Z,99151.19
2023-04-11T23:04:22.279Z,99151.31
2023-04-11T23:08:25.267Z,99140.78
2023-04-11T23:12:30.151Z,99128.91
2023-04-11T23:16:35.272Z,99126.72
2023-04-11T23:20:38.604Z,99131.75
2023-04-11T23:24:41.895Z,99140.31
2023-04-11T23:28:45.185Z,99141.47
2023-04-11T23:32:49.450Z,99147.03
2023-04-11T23:36:54.272Z,99140.75
2023-04-11T23:40:57.258Z,99143.69
2023-04-11T23:45:00.157Z,99138.03
2023-04-11T23:49:07.996Z,99143.50
2023-04-11T23:53:10.981Z,99155.16
2023-04-11T23:57:14.109Z,99160.50
